sensor_id;sensor_type;location;lat;lon;timestamp;temperature;humidity
27870;DHT22;15225;50.730;4.244;2024-01-27T19:48:30;3.70;31.40
27870;DHT22;15225;50.730;4.244;2024-01-27T19:50:55;3.50;34.80
27870;DHT22;15225;50.730;4.244;2024-01-27T19:53:21;3.70;35.30
27870;DHT22;15225;50.730;4.244;2024-01-27T19:55:47;4.10;30.00
27870;DHT22;15225;50.730;4.244;2024-01-27T19:58:12;4.40;22.50
27870;DHT22;15225;50.730;4.244;2024-01-27T20:00:38;4.70;1.00
27870;DHT22;15225;50.730;4.244;2024-01-27T20:03:04;5.10;1.00
27870;DHT22;15225;50.730;4.244;2024-01-27T20:05:29;5.40;1.00
27870;DHT22;15225;50.730;4.244;2024-01-27T20:07:57;5.60;1.00
27870;DHT22;15225;50.730;4.244;2024-01-27T20:10:22;5.70;1.00
27870;DHT22;15225;50.730;4.244;2024-01-27T20:12:48;5.70;1.00
27870;DHT22;15225;50.730;4.244;2024-01-27T20:15:16;5.70;1.00
27870;DHT22;15225;50.730;4.244;2024-01-27T20:17:41;5.80;1.00
27870;DHT22;15225;50.730;4.244;2024-01-27T20:20:08;5.90;1.00
27870;DHT22;15225;50.730;4.244;2024-01-27T20:22:34;5.90;1.00
27870;DHT22;15225;50.730;4.244;2024-01-27T20:25:01;5.70;1.00
27870;DHT22;15225;50.730;4.244;2024-01-27T20:27:27;5.70;1.00
27870;DHT22;15225;50.730;4.244;2024-01-27T20:29:53;5.90;99.90
27870;DHT22;15225;50.730;4.244;2024-01-27T20:32:19;5.90;99.90
27870;DHT22;15225;50.730;4.244;2024-01-27T20:34:45;5.80;99.90
27870;DHT22;15225;50.730;4.244;2024-01-27T20:37:11;5.80;99.90
27870;DHT22;15225;50.730;4.244;2024-01-27T20:39:37;5.90;99.90
27870;DHT22;15225;50.730;4.244;2024-01-27T20:42:10;5.90;99.90
27870;DHT22;15225;50.730;4.244;2024-01-27T20:44:37;5.60;1.00
27870;DHT22;15225;50.730;4.244;2024-01-27T20:47:03;5.60;1.00
27870;DHT22;15225;50.730;4.244;2024-01-27T20:49:28;5.80;99.90
27870;DHT22;15225;50.730;4.244;2024-01-27T20:51:54;5.80;99.90
27870;DHT22;15225;50.730;4.244;2024-01-27T20:54:21;5.80;99.90
27870;DHT22;15225;50.730;4.244;2024-01-27T20:56:47;5.80;99.90
27870;DHT22;15225;50.730;4.244;2024-01-27T20:59:13;5.60;99.90
27870;DHT22;15225;50.730;4.244;2024-01-27T21:01:38;5.50;99.90
27870;DHT22;15225;50.730;4.244;2024-01-27T21:04:06;5.50;99.90
27870;DHT22;15225;50.730;4.244;2024-01-27T21:06:32;5.40;99.90
27870;DHT22;15225;50.730;4.244;2024-01-27T21:08:58;5.50;99.90
27870;DHT22;15225;50.730;4.244;2024-01-27T21:11:23;5.50;99.90
27870;DHT22;15225;50.730;4.244;2024-01-27T21:13:49;5.50;99.90
27870;DHT22;15225;50.730;4.244;2024-01-27T21:16:15;5.60;99.90
27870;DHT22;15225;50.730;4.244;2024-01-27T21:18:41;5.50;99.90
27870;DHT22;15225;50.730;4.244;2024-01-27T21:21:06;5.40;1.00
27870;DHT22;15225;50.730;4.244;2024-01-27T21:23:32;5.30;1.00
27870;DHT22;15225;50.730;4.244;2024-01-27T21:25:58;5.00;1.00
27870;DHT22;15225;50.730;4.244;2024-01-27T21:28:24;5.10;1.00
27870;DHT22;15225;50.730;4.244;2024-01-27T21:30:49;5.30;1.00
27870;DHT22;15225;50.730;4.244;2024-01-27T21:33:15;5.40;99.90
27870;DHT22;15225;50.730;4.244;2024-01-27T21:35:43;5.40;99.90
27870;DHT22;15225;50.730;4.244;2024-01-27T21:38:08;5.40;99.90
27870;DHT22;15225;50.730;4.244;2024-01-27T21:40:34;5.30;99.90
27870;DHT22;15225;50.730;4.244;2024-01-27T21:43:03;4.90;1.00
27870;DHT22;15225;50.730;4.244;2024-01-27T21:45:29;4.80;1.00
27870;DHT22;15225;50.730;4.244;2024-01-27T21:47:55;4.90;1.00
27870;DHT22;15225;50.730;4.244;2024-01-27T21:50:21;4.90;1.00
27870;DHT22;15225;50.730;4.244;2024-01-27T21:52:49;4.90;1.00
27870;DHT22;15225;50.730;4.244;2024-01-27T21:55:14;4.90;1.00
27870;DHT22;15225;50.730;4.244;2024-01-27T21:57:40;5.20;99.90
27870;DHT22;15225;50.730;4.244;2024-01-27T22:00:06;5.20;99.90
27870;DHT22;15225;50.730;4.244;2024-01-27T22:02:35;5.10;99.90
27870;DHT22;15225;50.730;4.244;2024-01-27T22:05:04;5.10;1.00
27870;DHT22;15225;50.730;4.244;2024-01-27T22:07:38;4.70;1.00
27870;DHT22;15225;50.730;4.244;2024-01-27T22:13:25;4.80;99.90
27870;DHT22;15225;50.730;4.244;2024-01-27T22:15:51;4.80;1.00
27870;DHT22;15225;50.730;4.244;2024-01-27T22:18:16;5.00;99.90
27870;DHT22;15225;50.730;4.244;2024-01-27T22:20:43;4.80;1.00
27870;DHT22;15225;50.730;4.244;2024-01-27T22:23:08;4.70;1.00
27870;DHT22;15225;50.730;4.244;2024-01-27T22:25:34;4.70;1.00
27870;DHT22;15225;50.730;4.244;2024-01-27T22:28:00;4.90;99.90
27870;DHT22;15225;50.730;4.244;2024-01-27T22:30:26;5.00;99.90
27870;DHT22;15225;50.730;4.244;2024-01-27T22:32:52;5.00;99.90
27870;DHT22;15225;50.730;4.244;2024-01-27T22:35:17;4.90;99.90
27870;DHT22;15225;50.730;4.244;2024-01-27T22:37:44;4.90;99.90
27870;DHT22;15225;50.730;4.244;2024-01-27T22:40:13;4.90;99.90
27870;DHT22;15225;50.730;4.244;2024-01-27T22:42:38;4.80;99.90
27870;DHT22;15225;50.730;4.244;2024-01-27T22:45:04;4.60;1.00
27870;DHT22;15225;50.730;4.244;2024-01-27T22:50:53;4.60;1.00
27870;DHT22;15225;50.730;4.244;2024-01-27T22:53:22;4.50;1.00
27870;DHT22;15225;50.730;4.244;2024-01-27T22:55:48;4.40;1.00
